sensor_id;sensor_type;location;lat;lon;timestamp;temperature;humidity
2497;DHT22;1259;48.306;14.374;2023-06-26T00:02:15;20.90;84.50
2497;DHT22;1259;48.306;14.374;2023-06-26T00:04:42;20.90;84.50
2497;DHT22;1259;48.306;14.374;2023-06-26T00:07:08;20.80;84.50
2497;DHT22;1259;48.306;14.374;2023-06-26T00:09:35;20.90;84.80
2497;DHT22;1259;48.306;14.374;2023-06-26T00:12:02;20.90;84.80
2497;DHT22;1259;48.306;14.374;2023-06-26T00:14:28;20.90;85.00
2497;DHT22;1259;48.306;14.374;2023-06-26T00:16:57;20.80;84.80
2497;DHT22;1259;48.306;14.374;2023-06-26T00:19:23;20.80;85.00
2497;DHT22;1259;48.306;14.374;2023-06-26T00:21:50;20.70;84.90
2497;DHT22;1259;48.306;14.374;2023-06-26T00:24:17;20.70;85.20
2497;DHT22;1259;48.306;14.374;2023-06-26T00:26:46;20.70;85.30
2497;DHT22;1259;48.306;14.374;2023-06-26T00:29:13;20.60;85.30
2497;DHT22;1259;48.306;14.374;2023-06-26T00:31:39;20.60;86.00
2497;DHT22;1259;48.306;14.374;2023-06-26T00:34:07;20.40;86.80
2497;DHT22;1259;48.306;14.374;2023-06-26T00:36:34;20.40;86.50
2497;DHT22;1259;48.306;14.374;2023-06-26T00:39:01;20.40;86.60
2497;DHT22;1259;48.306;14.374;2023-06-26T00:41:28;20.40;86.60
2497;DHT22;1259;48.306;14.374;2023-06-26T00:43:55;20.50;86.60
2497;DHT22;1259;48.306;14.374;2023-06-26T00:46:22;20.40;86.80
2497;DHT22;1259;48.306;14.374;2023-06-26T00:48:49;20.50;86.70
2497;DHT22;1259;48.306;14.374;2023-06-26T00:51:17;20.50;86.80
2497;DHT22;1259;48.306;14.374;2023-06-26T00:53:44;20.50;87.10
2497;DHT22;1259;48.306;14.374;2023-06-26T00:56:11;20.40;86.40
2497;DHT22;1259;48.306;14.374;2023-06-26T00:58:38;20.40;86.40
2497;DHT22;1259;48.306;14.374;2023-06-26T01:01:04;20.40;86.60
2497;DHT22;1259;48.306;14.374;2023-06-26T01:03:34;20.40;86.60
2497;DHT22;1259;48.306;14.374;2023-06-26T01:06:02;20.40;86.50
2497;DHT22;1259;48.306;14.374;2023-06-26T01:08:30;20.50;86.90
2497;DHT22;1259;48.306;14.374;2023-06-26T01:10:57;20.50;86.90
2497;DHT22;1259;48.306;14.374;2023-06-26T01:13:25;20.50;87.10
2497;DHT22;1259;48.306;14.374;2023-06-26T01:15:52;20.50;87.30
2497;DHT22;1259;48.306;14.374;2023-06-26T01:18:19;20.50;87.30
2497;DHT22;1259;48.306;14.374;2023-06-26T01:20:46;20.50;87.00
2497;DHT22;1259;48.306;14.374;2023-06-26T01:23:14;20.50;86.80
2497;DHT22;1259;48.306;14.374;2023-06-26T01:25:47;20.60;87.10
2497;DHT22;1259;48.306;14.374;2023-06-26T01:28:17;20.60;87.10
2497;DHT22;1259;48.306;14.374;2023-06-26T01:30:46;20.60;87.10
2497;DHT22;1259;48.306;14.374;2023-06-26T01:33:13;20.50;86.50
2497;DHT22;1259;48.306;14.374;2023-06-26T01:35:40;20.40;86.60
2497;DHT22;1259;48.306;14.374;2023-06-26T01:38:13;20.40;86.60
2497;DHT22;1259;48.306;14.374;2023-06-26T01:40:40;20.30;87.00
2497;DHT22;1259;48.306;14.374;2023-06-26T01:43:08;20.30;87.40
2497;DHT22;1259;48.306;14.374;2023-06-26T01:45:38;20.20;87.90
2497;DHT22;1259;48.306;14.374;2023-06-26T01:48:05;20.20;88.00
2497;DHT22;1259;48.306;14.374;2023-06-26T01:50:33;20.20;88.00
2497;DHT22;1259;48.306;14.374;2023-06-26T01:53:02;20.20;87.90
2497;DHT22;1259;48.306;14.374;2023-06-26T01:55:31;20.30;87.70
2497;DHT22;1259;48.306;14.374;2023-06-26T01:58:01;20.30;87.30
2497;DHT22;1259;48.306;14.374;2023-06-26T02:00:28;20.30;87.30
2497;DHT22;1259;48.306;14.374;2023-06-26T02:02:56;20.30;87.50
2497;DHT22;1259;48.306;14.374;2023-06-26T02:05:23;20.20;87.60
2497;DHT22;1259;48.306;14.374;2023-06-26T02:07:50;20.20;88.50
2497;DHT22;1259;48.306;14.374;2023-06-26T02:10:17;20.00;88.90
2497;DHT22;1259;48.306;14.374;2023-06-26T02:12:44;19.90;89.30
2497;DHT22;1259;48.306;14.374;2023-06-26T02:15:10;20.00;88.90
2497;DHT22;1259;48.306;14.374;2023-06-26T02:17:37;20.00;89.40
2497;DHT22;1259;48.306;14.374;2023-06-26T02:20:06;20.00;89.50
2497;DHT22;1259;48.306;14.374;2023-06-26T02:22:34;20.00;89.60
2497;DHT22;1259;48.306;14.374;2023-06-26T02:25:01;20.00;89.30
2497;DHT22;1259;48.306;14.374;2023-06-26T02:27:28;19.70;89.90
2497;DHT22;1259;48.306;14.374;2023-06-26T02:29:54;19.70;89.60
2497;DHT22;1259;48.306;14.374;2023-06-26T02:32:21;19.60;90.10
2497;DHT22;1259;48.306;14.374;2023-06-26T02:34:48;19.60;90.40
2497;DHT22;1259;48.306;14.374;2023-06-26T02:37:18;19.50;90.40
2497;DHT22;1259;48.306;14.374;2023-06-26T02:39:45;19.50;90.70
2497;DHT22;1259;48.306;14.374;2023-06-26T02:42:11;19.20;91.10
2497;DHT22;1259;48.306;14.374;2023-06-26T02:44:38;18.90;91.80
2497;DHT22;1259;48.306;14.374;2023-06-26T02:47:05;18.90;92.10
2497;DHT22;1259;48.306;14.374;2023-06-26T02:49:31;18.90;92.20
2497;DHT22;1259;48.306;14.374;2023-06-26T02:51:58;18.90;92.30
2497;DHT22;1259;48.306;14.374;2023-06-26T02:54:26;18.80;92.50
2497;DHT22;1259;48.306;14.374;2023-06-26T02:56:53;18.80;92.80
2497;DHT22;1259;48.306;14.374;2023-06-26T02:59:19;18.70;93.20
2497;DHT22;1259;48.306;14.374;2023-06-26T03:01:46;18.70;93.40
2497;DHT22;1259;48.306;14.374;2023-06-26T03:04:13;18.70;93.50
2497;DHT22;1259;48.306;14.374;2023-06-26T03:06:40;18.60;93.80
2497;DHT22;1259;48.306;14.374;2023-06-26T03:09:07;18.70;93.70
2497;DHT22;1259;48.306;14.374;2023-06-26T03:11:35;18.70;93.80
2497;DHT22;1259;48.306;14.374;2023-06-26T03:14:01;18.90;93.40
2497;DHT22;1259;48.306;14.374;2023-06-26T03:16:28;18.90;93.40
2497;DHT22;1259;48.306;14.374;2023-06-26T03:18:55;19.00;93.60
2497;DHT22;1259;48.306;14.374;2023-06-26T03:21:21;19.00;93.80
2497;DHT22;1259;48.306;14.374;2023-06-26T03:23:48;18.90;94.10
2497;DHT22;1259;48.306;14.374;2023-06-26T03:26:15;18.80;94.50
2497;DHT22;1259;48.306;14.374;2023-06-26T03:28:43;18.80;95.00
2497;DHT22;1259;48.306;14.374;2023-06-26T03:31:09;18.80;95.30
2497;DHT22;1259;48.306;14.374;2023-06-26T03:33:37;18.80;95.60
2497;DHT22;1259;48.306;14.374;2023-06-26T03:36:03;18.90;96.20
2497;DHT22;1259;48.306;14.374;2023-06-26T03:38:31;18.90;96.00
2497;DHT22;1259;48.306;14.374;2023-06-26T03:40:58;18.90;96.80
2497;DHT22;1259;48.306;14.374;2023-06-26T03:43:24;18.80;97.20
2497;DHT22;1259;48.306;14.374;2023-06-26T03:45:52;18.90;98.30
2497;DHT22;1259;48.306;14.374;2023-06-26T03:48:19;18.90;98.10
2497;DHT22;1259;48.306;14.374;2023-06-26T03:50:46;18.90;98.50
2497;DHT22;1259;48.306;14.374;2023-06-26T03:53:12;19.00;98.10
2497;DHT22;1259;48.306;14.374;2023-06-26T03:55:39;19.00;98.30
2497;DHT22;1259;48.306;14.374;2023-06-26T03:58:06;19.00;98.60
2497;DHT22;1259;48.306;14.374;2023-06-26T04:00:32;19.00;98.60
2497;DHT22;1259;48.306;14.374;2023-06-26T04:03:00;19.10;98.80
2497;DHT22;1259;48.306;14.374;2023-06-26T04:05:28;19.10;99.50
2497;DHT22;1259;48.306;14.374;2023-06-26T04:07:54;19.20;99.80
2497;DHT22;1259;48.306;14.374;2023-06-26T04:10:21;19.10;99.90
2497;DHT22;1259;48.306;14.374;2023-06-26T04:12:48;19.10;99.90
2497;DHT22;1259;48.306;14.374;2023-06-26T04:15:15;19.10;99.90
2497;DHT22;1259;48.306;14.374;2023-06-26T04:17:41;19.20;99.90
2497;DHT22;1259;48.306;14.374;2023-06-26T04:20:10;19.10;99.90
2497;DHT22;1259;48.306;14.374;2023-06-26T04:22:36;19.20;99.90
2497;DHT22;1259;48.306;14.374;2023-06-26T04:25:03;19.20;99.90
2497;DHT22;1259;48.306;14.374;2023-06-26T04:27:30;19.40;99.90
2497;DHT22;1259;48.306;14.374;2023-06-26T04:29:57;19.30;99.90
2497;DHT22;1259;48.306;14.374;2023-06-26T04:32:24;19.20;99.90
2497;DHT22;1259;48.306;14.374;2023-06-26T04:34:50;19.30;99.90
2497;DHT22;1259;48.306;14.374;2023-06-26T04:37:20;19.30;99.90
2497;DHT22;1259;48.306;14.374;2023-06-26T04:39:47;19.30;99.90
2497;DHT22;1259;48.306;14.374;2023-06-26T04:42:13;19.40;99.90
2497;DHT22;1259;48.306;14.374;2023-06-26T04:44:40;19.50;99.90
2497;DHT22;1259;48.306;14.374;2023-06-26T04:47:08;19.40;99.90
2497;DHT22;1259;48.306;14.374;2023-06-26T04:49:34;19.30;99.90
2497;DHT22;1259;48.306;14.374;2023-06-26T04:52:01;19.30;99.90
2497;DHT22;1259;48.306;14.374;2023-06-26T04:54:32;19.20;99.90
2497;DHT22;1259;48.306;14.374;2023-06-26T04:56:59;19.20;99.90
2497;DHT22;1259;48.306;14.374;2023-06-26T04:59:25;19.20;99.90
2497;DHT22;1259;48.306;14.374;2023-06-26T05:01:52;19.30;99.90
2497;DHT22;1259;48.306;14.374;2023-06-26T05:04:19;19.40;99.90
2497;DHT22;1259;48.306;14.374;2023-06-26T05:06:45;19.50;99.90
2497;DHT22;1259;48.306;14.374;2023-06-26T05:09:12;19.70;99.90
2497;DHT22;1259;48.306;14.374;2023-06-26T05:11:40;19.60;99.90
2497;DHT22;1259;48.306;14.374;2023-06-26T05:14:07;19.90;99.90
2497;DHT22;1259;48.306;14.374;2023-06-26T05:16:34;19.90;99.90
2497;DHT22;1259;48.306;14.374;2023-06-26T05:19:01;20.00;99.90
2497;DHT22;1259;48.306;14.374;2023-06-26T05:21:28;20.10;99.90
2497;DHT22;1259;48.306;14.374;2023-06-26T05:23:55;19.90;99.90
2497;DHT22;1259;48.306;14.374;2023-06-26T05:26:22;20.10;99.90
2497;DHT22;1259;48.306;14.374;2023-06-26T05:28:51;20.20;99.90
2497;DHT22;1259;48.306;14.374;2023-06-26T05:31:18;20.30;99.90
2497;DHT22;1259;48.306;14.374;2023-06-26T05:33:45;20.40;99.90
2497;DHT22;1259;48.306;14.374;2023-06-26T05:36:11;20.50;99.90
2497;DHT22;1259;48.306;14.374;2023-06-26T05:38:39;20.50;99.90
2497;DHT22;1259;48.306;14.374;2023-06-26T05:41:06;20.70;99.90
2497;DHT22;1259;48.306;14.374;2023-06-26T05:43:32;20.80;99.90
2497;DHT22;1259;48.306;14.374;2023-06-26T05:46:01;20.90;99.90
2497;DHT22;1259;48.306;14.374;2023-06-26T05:48:27;21.10;99.90
2497;DHT22;1259;48.306;14.374;2023-06-26T05:50:54;21.10;99.90
2497;DHT22;1259;48.306;14.374;2023-06-26T05:53:21;20.90;99.90
2497;DHT22;1259;48.306;14.374;2023-06-26T05:55:48;21.10;99.90
2497;DHT22;1259;48.306;14.374;2023-06-26T05:58:15;21.30;99.90
2497;DHT22;1259;48.306;14.374;2023-06-26T06:00:42;21.30;99.90
2497;DHT22;1259;48.306;14.374;2023-06-26T06:03:10;21.50;99.90
2497;DHT22;1259;48.306;14.374;2023-06-26T06:05:37;21.70;99.90
2497;DHT22;1259;48.306;14.374;2023-06-26T06:08:04;21.80;99.90
2497;DHT22;1259;48.306;14.374;2023-06-26T06:10:30;22.00;99.90
2497;DHT22;1259;48.306;14.374;2023-06-26T06:12:57;22.00;99.70
2497;DHT22;1259;48.306;14.374;2023-06-26T06:15:24;22.00;99.30
2497;DHT22;1259;48.306;14.374;2023-06-26T06:17:50;21.90;99.90
2497;DHT22;1259;48.306;14.374;2023-06-26T06:20:18;22.10;99.90
2497;DHT22;1259;48.306;14.374;2023-06-26T06:22:46;22.10;99.90
2497;DHT22;1259;48.306;14.374;2023-06-26T06:25:13;22.30;99.90
2497;DHT22;1259;48.306;14.374;2023-06-26T06:27:40;22.40;99.90
2497;DHT22;1259;48.306;14.374;2023-06-26T06:30:07;22.50;99.90
2497;DHT22;1259;48.306;14.374;2023-06-26T06:32:34;22.30;99.90
2497;DHT22;1259;48.306;14.374;2023-06-26T06:35:01;22.30;99.90
2497;DHT22;1259;48.306;14.374;2023-06-26T06:37:36;22.30;99.80
2497;DHT22;1259;48.306;14.374;2023-06-26T06:40:04;22.50;98.10
2497;DHT22;1259;48.306;14.374;2023-06-26T06:42:31;22.70;99.10
2497;DHT22;1259;48.306;14.374;2023-06-26T06:44:58;22.60;96.50
2497;DHT22;1259;48.306;14.374;2023-06-26T06:47:25;22.50;95.70
2497;DHT22;1259;48.306;14.374;2023-06-26T06:49:51;22.70;96.50
2497;DHT22;1259;48.306;14.374;2023-06-26T06:52:19;23.20;96.50
2497;DHT22;1259;48.306;14.374;2023-06-26T06:54:53;23.10;95.30
2497;DHT22;1259;48.306;14.374;2023-06-26T06:57:20;23.20;94.00
2497;DHT22;1259;48.306;14.374;2023-06-26T06:59:47;23.40;95.30
2497;DHT22;1259;48.306;14.374;2023-06-26T07:02:13;23.30;94.50
2497;DHT22;1259;48.306;14.374;2023-06-26T07:04:40;23.50;95.10
2497;DHT22;1259;48.306;14.374;2023-06-26T07:07:07;23.50;93.30
2497;DHT22;1259;48.306;14.374;2023-06-26T07:09:34;23.60;94.20
2497;DHT22;1259;48.306;14.374;2023-06-26T07:12:02;24.00;93.50
2497;DHT22;1259;48.306;14.374;2023-06-26T07:14:30;24.30;93.70
2497;DHT22;1259;48.306;14.374;2023-06-26T07:16:57;24.20;92.60
2497;DHT22;1259;48.306;14.374;2023-06-26T07:19:24;24.00;92.00
2497;DHT22;1259;48.306;14.374;2023-06-26T07:21:50;24.00;96.60
2497;DHT22;1259;48.306;14.374;2023-06-26T07:24:17;23.90;97.10
2497;DHT22;1259;48.306;14.374;2023-06-26T07:26:44;23.80;97.50
2497;DHT22;1259;48.306;14.374;2023-06-26T07:29:12;23.90;97.30
2497;DHT22;1259;48.306;14.374;2023-06-26T07:31:38;23.90;98.50
2497;DHT22;1259;48.306;14.374;2023-06-26T07:34:05;23.80;97.70
2497;DHT22;1259;48.306;14.374;2023-06-26T07:36:32;24.00;97.00
2497;DHT22;1259;48.306;14.374;2023-06-26T07:38:58;23.80;97.70
2497;DHT22;1259;48.306;14.374;2023-06-26T07:41:25;23.80;97.80
2497;DHT22;1259;48.306;14.374;2023-06-26T07:43:52;23.70;97.80
2497;DHT22;1259;48.306;14.374;2023-06-26T07:46:20;24.10;97.50
2497;DHT22;1259;48.306;14.374;2023-06-26T07:48:46;24.10;96.30
2497;DHT22;1259;48.306;14.374;2023-06-26T07:51:13;24.10;95.90
2497;DHT22;1259;48.306;14.374;2023-06-26T07:53:40;24.70;96.40
2497;DHT22;1259;48.306;14.374;2023-06-26T07:56:06;24.70;97.40
2497;DHT22;1259;48.306;14.374;2023-06-26T07:58:33;24.80;96.20
2497;DHT22;1259;48.306;14.374;2023-06-26T08:01:00;24.50;95.30
2497;DHT22;1259;48.306;14.374;2023-06-26T08:03:28;25.10;97.30
2497;DHT22;1259;48.306;14.374;2023-06-26T08:05:54;25.60;97.00
2497;DHT22;1259;48.306;14.374;2023-06-26T08:08:21;25.80;96.80
2497;DHT22;1259;48.306;14.374;2023-06-26T08:10:48;26.20;95.50
2497;DHT22;1259;48.306;14.374;2023-06-26T08:13:14;26.30;94.40
2497;DHT22;1259;48.306;14.374;2023-06-26T08:15:41;26.40;93.30
2497;DHT22;1259;48.306;14.374;2023-06-26T08:18:08;26.80;92.60
2497;DHT22;1259;48.306;14.374;2023-06-26T08:20:36;26.80;94.30
2497;DHT22;1259;48.306;14.374;2023-06-26T08:23:03;26.60;90.80
2497;DHT22;1259;48.306;14.374;2023-06-26T08:25:30;27.00;92.90
2497;DHT22;1259;48.306;14.374;2023-06-26T08:27:56;27.10;92.50
2497;DHT22;1259;48.306;14.374;2023-06-26T08:30:23;26.80;91.20
2497;DHT22;1259;48.306;14.374;2023-06-26T08:32:53;26.60;90.00
2497;DHT22;1259;48.306;14.374;2023-06-26T08:35:20;26.70;87.20
2497;DHT22;1259;48.306;14.374;2023-06-26T08:37:48;26.40;87.60
2497;DHT22;1259;48.306;14.374;2023-06-26T08:40:16;26.90;89.60
2497;DHT22;1259;48.306;14.374;2023-06-26T08:42:42;26.70;90.70
2497;DHT22;1259;48.306;14.374;2023-06-26T08:45:09;26.70;90.40
2497;DHT22;1259;48.306;14.374;2023-06-26T08:47:36;26.40;85.60
2497;DHT22;1259;48.306;14.374;2023-06-26T08:50:06;26.40;85.00
2497;DHT22;1259;48.306;14.374;2023-06-26T08:52:33;26.50;87.00
2497;DHT22;1259;48.306;14.374;2023-06-26T08:55:05;26.60;83.90
2497;DHT22;1259;48.306;14.374;2023-06-26T08:57:33;27.00;87.20
2497;DHT22;1259;48.306;14.374;2023-06-26T09:00:00;27.10;84.30
2497;DHT22;1259;48.306;14.374;2023-06-26T09:02:27;27.60;84.00
2497;DHT22;1259;48.306;14.374;2023-06-26T09:04:54;27.30;80.20
2497;DHT22;1259;48.306;14.374;2023-06-26T09:07:21;27.30;84.20
2497;DHT22;1259;48.306;14.374;2023-06-26T09:09:47;27.30;82.40
2497;DHT22;1259;48.306;14.374;2023-06-26T09:12:16;27.30;82.10
2497;DHT22;1259;48.306;14.374;2023-06-26T09:14:42;27.60;83.40
2497;DHT22;1259;48.306;14.374;2023-06-26T09:17:09;27.50;80.90
2497;DHT22;1259;48.306;14.374;2023-06-26T09:19:36;27.80;81.10
2497;DHT22;1259;48.306;14.374;2023-06-26T09:22:03;28.20;79.80
2497;DHT22;1259;48.306;14.374;2023-06-26T09:24:30;28.20;78.70
2497;DHT22;1259;48.306;14.374;2023-06-26T09:26:57;28.40;80.00
2497;DHT22;1259;48.306;14.374;2023-06-26T09:29:25;28.40;78.70
2497;DHT22;1259;48.306;14.374;2023-06-26T09:31:52;28.40;76.20
2497;DHT22;1259;48.306;14.374;2023-06-26T09:34:19;28.50;79.10
2497;DHT22;1259;48.306;14.374;2023-06-26T09:36:45;28.70;80.30
2497;DHT22;1259;48.306;14.374;2023-06-26T09:39:14;28.70;77.70
2497;DHT22;1259;48.306;14.374;2023-06-26T09:41:41;28.50;74.10
2497;DHT22;1259;48.306;14.374;2023-06-26T09:44:10;28.20;72.10
2497;DHT22;1259;48.306;14.374;2023-06-26T09:46:38;28.30;76.10
2497;DHT22;1259;48.306;14.374;2023-06-26T09:49:05;28.20;74.80
2497;DHT22;1259;48.306;14.374;2023-06-26T09:51:32;28.50;77.30
2497;DHT22;1259;48.306;14.374;2023-06-26T09:53:59;28.50;76.20
2497;DHT22;1259;48.306;14.374;2023-06-26T09:56:26;28.10;74.20
2497;DHT22;1259;48.306;14.374;2023-06-26T09:58:54;28.30;74.50
2497;DHT22;1259;48.306;14.374;2023-06-26T10:01:21;29.00;78.00
2497;DHT22;1259;48.306;14.374;2023-06-26T10:03:49;29.10;70.20
2497;DHT22;1259;48.306;14.374;2023-06-26T10:06:17;29.00;73.00
2497;DHT22;1259;48.306;14.374;2023-06-26T10:08:45;28.80;74.50
2497;DHT22;1259;48.306;14.374;2023-06-26T10:11:14;29.30;76.60
2497;DHT22;1259;48.306;14.374;2023-06-26T10:13:43;28.90;71.20
2497;DHT22;1259;48.306;14.374;2023-06-26T10:16:12;28.70;70.90
2497;DHT22;1259;48.306;14.374;2023-06-26T10:18:39;28.90;69.20
2497;DHT22;1259;48.306;14.374;2023-06-26T10:21:08;29.00;71.30
2497;DHT22;1259;48.306;14.374;2023-06-26T10:23:35;28.70;72.30
2497;DHT22;1259;48.306;14.374;2023-06-26T10:26:03;28.70;70.50
2497;DHT22;1259;48.306;14.374;2023-06-26T10:28:30;28.60;68.90
2497;DHT22;1259;48.306;14.374;2023-06-26T10:30:58;28.90;74.30
2497;DHT22;1259;48.306;14.374;2023-06-26T10:33:25;29.10;72.50
2497;DHT22;1259;48.306;14.374;2023-06-26T10:35:51;29.00;70.20
2497;DHT22;1259;48.306;14.374;2023-06-26T10:38:19;28.90;71.00
2497;DHT22;1259;48.306;14.374;2023-06-26T10:40:46;28.90;70.30
2497;DHT22;1259;48.306;14.374;2023-06-26T10:43:15;28.90;71.40
2497;DHT22;1259;48.306;14.374;2023-06-26T10:45:45;28.80;68.00
2497;DHT22;1259;48.306;14.374;2023-06-26T10:48:17;29.00;71.40
2497;DHT22;1259;48.306;14.374;2023-06-26T10:50:46;29.20;68.60
2497;DHT22;1259;48.306;14.374;2023-06-26T10:53:21;28.90;72.20
2497;DHT22;1259;48.306;14.374;2023-06-26T10:55:51;29.10;69.30
2497;DHT22;1259;48.306;14.374;2023-06-26T10:58:30;29.00;69.30
2497;DHT22;1259;48.306;14.374;2023-06-26T11:01:19;29.00;70.20
2497;DHT22;1259;48.306;14.374;2023-06-26T11:03:47;29.00;71.40
2497;DHT22;1259;48.306;14.374;2023-06-26T11:06:16;29.10;71.20
2497;DHT22;1259;48.306;14.374;2023-06-26T11:08:45;29.20;67.10
2497;DHT22;1259;48.306;14.374;2023-06-26T11:11:12;28.90;69.30
2497;DHT22;1259;48.306;14.374;2023-06-26T11:13:39;28.80;69.50
2497;DHT22;1259;48.306;14.374;2023-06-26T11:16:06;28.90;67.20
2497;DHT22;1259;48.306;14.374;2023-06-26T11:18:32;28.80;67.80
2497;DHT22;1259;48.306;14.374;2023-06-26T11:21:04;29.10;70.80
2497;DHT22;1259;48.306;14.374;2023-06-26T11:23:31;29.20;70.00
2497;DHT22;1259;48.306;14.374;2023-06-26T11:26:13;29.00;66.40
2497;DHT22;1259;48.306;14.374;2023-06-26T11:28:45;29.10;67.80
2497;DHT22;1259;48.306;14.374;2023-06-26T11:31:23;29.20;66.20
2497;DHT22;1259;48.306;14.374;2023-06-26T11:33:49;29.00;67.70
2497;DHT22;1259;48.306;14.374;2023-06-26T11:36:16;29.10;66.30
2497;DHT22;1259;48.306;14.374;2023-06-26T11:38:43;29.20;63.90
2497;DHT22;1259;48.306;14.374;2023-06-26T11:41:09;29.20;66.20
2497;DHT22;1259;48.306;14.374;2023-06-26T11:43:37;29.30;63.30
2497;DHT22;1259;48.306;14.374;2023-06-26T11:46:04;29.40;66.20
2497;DHT22;1259;48.306;14.374;2023-06-26T11:48:31;28.90;62.40
2497;DHT22;1259;48.306;14.374;2023-06-26T11:50:58;29.10;66.40
2497;DHT22;1259;48.306;14.374;2023-06-26T11:53:24;29.20;66.60
2497;DHT22;1259;48.306;14.374;2023-06-26T11:55:51;29.10;63.70
2497;DHT22;1259;48.306;14.374;2023-06-26T11:58:17;29.20;66.10
2497;DHT22;1259;48.306;14.374;2023-06-26T12:00:47;29.20;66.40
2497;DHT22;1259;48.306;14.374;2023-06-26T12:03:13;29.50;63.30
2497;DHT22;1259;48.306;14.374;2023-06-26T12:05:40;29.20;62.20
2497;DHT22;1259;48.306;14.374;2023-06-26T12:08:10;29.10;66.80
2497;DHT22;1259;48.306;14.374;2023-06-26T12:10:37;29.20;65.90
2497;DHT22;1259;48.306;14.374;2023-06-26T12:13:04;29.30;64.80
2497;DHT22;1259;48.306;14.374;2023-06-26T12:15:31;29.30;66.60
2497;DHT22;1259;48.306;14.374;2023-06-26T12:17:59;29.20;64.10
2497;DHT22;1259;48.306;14.374;2023-06-26T12:20:25;29.20;61.60
2497;DHT22;1259;48.306;14.374;2023-06-26T12:22:56;29.30;64.40
2497;DHT22;1259;48.306;14.374;2023-06-26T12:25:23;29.20;60.00
2497;DHT22;1259;48.306;14.374;2023-06-26T12:27:49;29.10;62.10
2497;DHT22;1259;48.306;14.374;2023-06-26T12:30:16;29.30;64.70
2497;DHT22;1259;48.306;14.374;2023-06-26T12:32:46;29.20;65.30
2497;DHT22;1259;48.306;14.374;2023-06-26T12:35:14;29.20;65.40
2497;DHT22;1259;48.306;14.374;2023-06-26T12:37:41;29.30;65.10
2497;DHT22;1259;48.306;14.374;2023-06-26T12:40:19;29.60;66.60
2497;DHT22;1259;48.306;14.374;2023-06-26T12:42:47;29.30;64.10
2497;DHT22;1259;48.306;14.374;2023-06-26T12:45:14;29.50;67.70
2497;DHT22;1259;48.306;14.374;2023-06-26T12:47:41;29.30;61.50
2497;DHT22;1259;48.306;14.374;2023-06-26T12:50:08;29.50;62.20
2497;DHT22;1259;48.306;14.374;2023-06-26T12:52:36;29.40;61.90
2497;DHT22;1259;48.306;14.374;2023-06-26T12:55:02;29.40;60.90
2497;DHT22;1259;48.306;14.374;2023-06-26T12:57:31;29.30;61.70
2497;DHT22;1259;48.306;14.374;2023-06-26T12:59:58;29.30;61.90
2497;DHT22;1259;48.306;14.374;2023-06-26T13:02:24;29.20;60.80
2497;DHT22;1259;48.306;14.374;2023-06-26T13:04:51;29.20;62.30
2497;DHT22;1259;48.306;14.374;2023-06-26T13:07:18;29.00;59.40
2497;DHT22;1259;48.306;14.374;2023-06-26T13:09:46;29.10;62.90
2497;DHT22;1259;48.306;14.374;2023-06-26T13:12:13;29.20;63.80
2497;DHT22;1259;48.306;14.374;2023-06-26T13:14:40;29.40;64.20
2497;DHT22;1259;48.306;14.374;2023-06-26T13:17:07;29.20;63.10
2497;DHT22;1259;48.306;14.374;2023-06-26T13:19:33;29.30;61.10
2497;DHT22;1259;48.306;14.374;2023-06-26T13:22:00;29.20;60.70
2497;DHT22;1259;48.306;14.374;2023-06-26T13:24:26;29.30;62.50
2497;DHT22;1259;48.306;14.374;2023-06-26T13:26:54;29.10;60.60
2497;DHT22;1259;48.306;14.374;2023-06-26T13:29:21;29.10;61.80
2497;DHT22;1259;48.306;14.374;2023-06-26T13:31:51;29.10;61.70
2497;DHT22;1259;48.306;14.374;2023-06-26T13:34:20;29.20;62.10
2497;DHT22;1259;48.306;14.374;2023-06-26T13:36:47;29.10;63.40
2497;DHT22;1259;48.306;14.374;2023-06-26T13:39:14;29.20;63.30
2497;DHT22;1259;48.306;14.374;2023-06-26T13:41:40;29.30;61.80
2497;DHT22;1259;48.306;14.374;2023-06-26T13:44:08;29.00;62.80
2497;DHT22;1259;48.306;14.374;2023-06-26T13:46:35;29.20;63.20
2497;DHT22;1259;48.306;14.374;2023-06-26T13:49:01;29.20;62.20
2497;DHT22;1259;48.306;14.374;2023-06-26T13:51:28;29.20;62.20
2497;DHT22;1259;48.306;14.374;2023-06-26T13:53:55;29.20;62.20
2497;DHT22;1259;48.306;14.374;2023-06-26T13:56:25;29.10;60.60
2497;DHT22;1259;48.306;14.374;2023-06-26T13:58:53;29.10;60.50
2497;DHT22;1259;48.306;14.374;2023-06-26T14:01:21;29.00;60.50
2497;DHT22;1259;48.306;14.374;2023-06-26T14:03:49;29.10;62.90
2497;DHT22;1259;48.306;14.374;2023-06-26T14:06:15;29.10;60.40
2497;DHT22;1259;48.306;14.374;2023-06-26T14:08:42;29.20;63.30
2497;DHT22;1259;48.306;14.374;2023-06-26T14:11:09;29.20;60.70
2497;DHT22;1259;48.306;14.374;2023-06-26T14:13:35;29.10;61.50
2497;DHT22;1259;48.306;14.374;2023-06-26T14:16:02;29.10;61.00
2497;DHT22;1259;48.306;14.374;2023-06-26T14:18:31;29.00;61.40
2497;DHT22;1259;48.306;14.374;2023-06-26T14:20:58;29.10;63.10
2497;DHT22;1259;48.306;14.374;2023-06-26T14:23:24;29.00;61.40
2497;DHT22;1259;48.306;14.374;2023-06-26T14:25:51;29.10;61.50
2497;DHT22;1259;48.306;14.374;2023-06-26T14:28:18;29.00;60.10
2497;DHT22;1259;48.306;14.374;2023-06-26T14:30:44;29.00;61.10
2497;DHT22;1259;48.306;14.374;2023-06-26T14:33:11;29.10;60.00
2497;DHT22;1259;48.306;14.374;2023-06-26T14:35:39;29.00;59.70
2497;DHT22;1259;48.306;14.374;2023-06-26T14:38:06;28.90;60.00
2497;DHT22;1259;48.306;14.374;2023-06-26T14:40:32;29.00;60.20
2497;DHT22;1259;48.306;14.374;2023-06-26T14:42:59;28.90;59.50
2497;DHT22;1259;48.306;14.374;2023-06-26T14:45:25;29.00;58.70
2497;DHT22;1259;48.306;14.374;2023-06-26T14:47:52;29.00;60.40
2497;DHT22;1259;48.306;14.374;2023-06-26T14:50:19;29.00;60.40
2497;DHT22;1259;48.306;14.374;2023-06-26T14:52:47;29.00;59.10
2497;DHT22;1259;48.306;14.374;2023-06-26T14:55:14;29.10;61.10
2497;DHT22;1259;48.306;14.374;2023-06-26T14:57:40;29.20;60.60
2497;DHT22;1259;48.306;14.374;2023-06-26T15:00:08;29.10;58.90
2497;DHT22;1259;48.306;14.374;2023-06-26T15:02:35;29.10;58.60
2497;DHT22;1259;48.306;14.374;2023-06-26T15:05:01;29.00;59.60
2497;DHT22;1259;48.306;14.374;2023-06-26T15:07:28;29.00;60.50
2497;DHT22;1259;48.306;14.374;2023-06-26T15:09:56;29.00;60.40
2497;DHT22;1259;48.306;14.374;2023-06-26T15:12:23;29.10;60.50
2497;DHT22;1259;48.306;14.374;2023-06-26T15:14:49;29.00;59.40
2497;DHT22;1259;48.306;14.374;2023-06-26T15:17:16;28.90;58.70
2497;DHT22;1259;48.306;14.374;2023-06-26T15:19:43;29.00;59.60
2497;DHT22;1259;48.306;14.374;2023-06-26T15:22:10;29.00;58.90
2497;DHT22;1259;48.306;14.374;2023-06-26T15:24:39;28.90;58.80
2497;DHT22;1259;48.306;14.374;2023-06-26T15:27:07;28.90;58.80
2497;DHT22;1259;48.306;14.374;2023-06-26T15:29:34;28.90;58.20
2497;DHT22;1259;48.306;14.374;2023-06-26T15:32:00;28.90;58.70
2497;DHT22;1259;48.306;14.374;2023-06-26T15:34:27;29.00;59.20
2497;DHT22;1259;48.306;14.374;2023-06-26T15:36:54;28.90;58.30
2497;DHT22;1259;48.306;14.374;2023-06-26T15:39:20;28.90;58.80
2497;DHT22;1259;48.306;14.374;2023-06-26T15:41:47;29.00;58.80
2497;DHT22;1259;48.306;14.374;2023-06-26T15:44:15;28.90;58.90
2497;DHT22;1259;48.306;14.374;2023-06-26T15:46:42;28.90;58.70